Time;durP1;ratioP1;P1;durP2;ratioP2;P2;SDS_P1;SDS_P2;PMS_P1;PMS_P2;Temp;Humidity;BMP_temperature;BMP_pressure;BME280_temperature;BME280_humidity;BME280_pressure;Samples;Min_cycle;Max_cycle;Signal;HPM_P1;HPM_P2
2023/07/09 00:00:24;;;;;;;;;;;27.30;52.00;;;;;;5126172;27;43479;-78
2023/07/09 00:02:49;;;;;;;;;;;27.30;51.30;;;;;;5126152;27;42972;-79
2023/07/09 00:05:16;;;;;;;;;;;27.30;51.30;;;;;;5125852;27;43543;-78
2023/07/09 00:07:42;;;;;;;;;;;27.30;51.80;;;;;;5142300;27;43048;-78
2023/07/09 00:10:18;;;;;;;;;;;27.30;51.20;;;;;;5145584;27;43608;-78
2023/07/09 00:12:44;;;;;;;;;;;27.30;51.20;;;;;;5145304;27;43051;-78
2023/07/09 00:15:13;;;;;;;;;;;27.30;51.80;;;;;;5145336;27;43205;-78
2023/07/09 00:17:39;;;;;;;;;;;27.10;52.00;;;;;;5125427;27;42963;-78
2023/07/09 00:20:13;;;;;;;;;;;27.00;52.60;;;;;;5145718;27;42940;-79
2023/07/09 00:22:39;;;;;;;;;;;27.00;52.90;;;;;;5144392;27;43055;-78
2023/07/09 00:25:04;;;;;;;;;;;26.90;52.60;;;;;;5143728;27;43041;-79
2023/07/09 00:27:33;;;;;;;;;;;26.90;52.90;;;;;;5143952;27;43044;-79
2023/07/09 00:29:59;;;;;;;;;;;26.80;53.60;;;;;;5131460;27;42876;-79
2023/07/09 00:32:26;;;;;;;;;;;26.80;53.90;;;;;;5144478;27;43006;-79
2023/07/09 00:34:53;;;;;;;;;;;26.80;53.40;;;;;;5125274;27;44410;-79
2023/07/09 00:37:19;;;;;;;;;;;26.80;53.70;;;;;;5136924;27;43027;-78
2023/07/09 00:39:46;;;;;;;;;;;26.80;53.80;;;;;;5124862;27;43571;-79
2023/07/09 00:42:14;;;;;;;;;;;26.80;53.90;;;;;;5124695;27;43216;-79
2023/07/09 00:44:43;;;;;;;;;;;26.70;53.40;;;;;;5138902;27;44547;-79
2023/07/09 00:47:26;;;;;;;;;;;26.70;53.80;;;;;;5124230;27;43077;-79
2023/07/09 00:50:27;;;;;;;;;;;26.70;53.80;;;;;;5125601;27;43604;-79
2023/07/09 00:52:58;;;;;;;;;;;26.80;53.70;;;;;;5021449;28;43066;-78
2023/07/09 00:55:25;;;;;;;;;;;26.80;53.10;;;;;;5020026;28;44378;-78
2023/07/09 00:57:56;;;;;;;;;;;26.80;53.00;;;;;;5004723;28;43137;-79
2023/07/09 01:00:22;;;;;;;;;;;26.80;53.40;;;;;;5022001;28;43340;-79
2023/07/09 01:02:48;;;;;;;;;;;26.70;52.90;;;;;;5022133;28;42995;-79
2023/07/09 01:05:16;;;;;;;;;;;26.80;53.30;;;;;;5021830;28;43431;-78
2023/07/09 01:07:45;;;;;;;;;;;26.80;53.20;;;;;;5020854;28;43098;-78
2023/07/09 01:10:12;;;;;;;;;;;26.80;53.00;;;;;;5020761;28;43023;-78
2023/07/09 01:12:37;;;;;;;;;;;26.80;52.90;;;;;;5021472;28;42993;-78
2023/07/09 01:15:03;;;;;;;;;;;26.80;53.00;;;;;;5004075;28;44858;-78
2023/07/09 01:17:29;;;;;;;;;;;26.80;52.90;;;;;;5021807;28;43424;-79
2023/07/09 01:19:55;;;;;;;;;;;26.80;53.00;;;;;;5020587;28;43589;-79
2023/07/09 01:22:22;;;;;;;;;;;26.80;53.30;;;;;;5021899;28;43044;-79
2023/07/09 01:25:05;;;;;;;;;;;26.70;53.00;;;;;;5021090;28;43042;-78
2023/07/09 01:27:37;;;;;;;;;;;26.70;53.20;;;;;;5114216;27;42838;-78
2023/07/09 01:30:06;;;;;;;;;;;26.70;53.70;;;;;;5139026;27;42935;-79
2023/07/09 01:32:33;;;;;;;;;;;26.70;53.40;;;;;;5138367;27;42950;-79
2023/07/09 01:35:04;;;;;;;;;;;26.70;54.00;;;;;;5137319;27;43074;-79
2023/07/09 01:37:31;;;;;;;;;;;26.60;53.50;;;;;;5131859;27;42977;-79
2023/07/09 01:39:56;;;;;;;;;;;26.60;54.10;;;;;;5144114;27;43011;-79
2023/07/09 01:42:23;;;;;;;;;;;26.70;54.20;;;;;;5145224;27;43026;-79
2023/07/09 01:44:50;;;;;;;;;;;26.60;54.20;;;;;;5143311;27;44643;-79
2023/07/09 01:47:16;;;;;;;;;;;26.60;53.80;;;;;;5137104;27;42973;-77
2023/07/09 01:49:46;;;;;;;;;;;26.60;53.70;;;;;;5126780;27;43003;-78
2023/07/09 01:52:12;;;;;;;;;;;26.60;54.00;;;;;;5137543;27;43236;-78
2023/07/09 01:54:38;;;;;;;;;;;26.50;53.50;;;;;;5146815;27;42877;-78
2023/07/09 01:57:22;;;;;;;;;;;26.50;53.50;;;;;;5147509;27;42916;-79
2023/07/09 01:59:52;;;;;;;;;;;26.50;53.30;;;;;;5146686;27;43684;-78
2023/07/09 02:02:18;;;;;;;;;;;26.50;53.40;;;;;;5146486;27;43263;-79
2023/07/09 02:04:47;;;;;;;;;;;26.50;53.50;;;;;;5147280;27;43559;-79
2023/07/09 02:07:13;;;;;;;;;;;26.50;53.90;;;;;;5148410;27;42955;-78
2023/07/09 02:09:39;;;;;;;;;;;26.50;53.70;;;;;;5145837;27;42837;-78
2023/07/09 02:12:04;;;;;;;;;;;26.60;53.60;;;;;;5147829;27;42988;-78
2023/07/09 02:14:30;;;;;;;;;;;26.60;53.50;;;;;;5146654;27;42969;-79
2023/07/09 02:16:55;;;;;;;;;;;26.60;53.20;;;;;;5148621;27;43000;-78
2023/07/09 02:19:21;;;;;;;;;;;26.60;53.20;;;;;;5148240;27;42946;-78
2023/07/09 02:21:46;;;;;;;;;;;26.60;53.40;;;;;;5147712;27;43097;-79
2023/07/09 02:24:12;;;;;;;;;;;26.50;53.40;;;;;;5141827;27;44089;-79
2023/07/09 02:26:37;;;;;;;;;;;26.60;53.50;;;;;;5139394;27;43092;-79
2023/07/09 02:29:03;;;;;;;;;;;26.60;53.30;;;;;;5146731;27;43050;-78
2023/07/09 02:31:29;;;;;;;;;;;26.60;53.70;;;;;;5148560;27;42940;-79
2023/07/09 02:33:55;;;;;;;;;;;26.60;53.90;;;;;;5147341;27;43237;-79
2023/07/09 02:36:21;;;;;;;;;;;26.50;53.60;;;;;;5147505;27;42987;-78
2023/07/09 02:38:47;;;;;;;;;;;26.50;54.10;;;;;;5141115;27;43514;-79
2023/07/09 02:41:12;;;;;;;;;;;26.40;53.60;;;;;;5127533;27;43378;-78
2023/07/09 02:43:38;;;;;;;;;;;26.40;53.60;;;;;;5145028;27;44240;-78
2023/07/09 02:46:03;;;;;;;;;;;26.50;53.70;;;;;;5116070;27;42998;-79
2023/07/09 02:48:29;;;;;;;;;;;26.40;53.60;;;;;;5125858;27;43547;-78
2023/07/09 02:50:54;;;;;;;;;;;26.40;53.90;;;;;;5107911;27;42979;-78
2023/07/09 02:53:20;;;;;;;;;;;26.50;53.80;;;;;;5130571;27;42939;-79
2023/07/09 02:55:45;;;;;;;;;;;26.50;53.70;;;;;;5147755;27;42971;-78
2023/07/09 02:58:10;;;;;;;;;;;26.50;53.60;;;;;;5128351;27;42944;-79
2023/07/09 03:00:36;;;;;;;;;;;26.50;53.20;;;;;;5143238;27;43045;-79
2023/07/09 03:03:02;;;;;;;;;;;26.50;53.10;;;;;;5146855;27;43639;-79
2023/07/09 03:05:27;;;;;;;;;;;26.50;53.20;;;;;;5143929;27;42926;-79
2023/07/09 03:07:53;;;;;;;;;;;26.50;53.20;;;;;;5128722;27;42979;-79
2023/07/09 03:10:18;;;;;;;;;;;26.50;53.20;;;;;;5147019;27;42915;-79
2023/07/09 03:12:44;;;;;;;;;;;26.50;53.10;;;;;;5146991;27;43643;-79
2023/07/09 03:15:09;;;;;;;;;;;26.50;53.20;;;;;;5146806;27;42845;-79
2023/07/09 03:17:35;;;;;;;;;;;26.50;53.20;;;;;;5146720;27;42972;-78
2023/07/09 03:20:00;;;;;;;;;;;26.50;53.30;;;;;;5146809;27;43138;-78
2023/07/09 03:22:26;;;;;;;;;;;26.50;53.80;;;;;;5135346;27;42932;-79
2023/07/09 03:24:51;;;;;;;;;;;26.40;53.80;;;;;;5143351;27;43123;-79
2023/07/09 03:27:17;;;;;;;;;;;26.30;53.50;;;;;;5146977;27;43708;-78
2023/07/09 03:29:42;;;;;;;;;;;26.30;53.70;;;;;;5146875;27;42968;-79
2023/07/09 03:32:08;;;;;;;;;;;26.30;54.30;;;;;;5146834;27;42925;-79
2023/07/09 03:34:33;;;;;;;;;;;26.30;54.30;;;;;;5146703;27;42942;-78
2023/07/09 03:36:59;;;;;;;;;;;26.30;54.00;;;;;;5141513;27;42907;-79
2023/07/09 03:39:24;;;;;;;;;;;26.20;54.00;;;;;;5136571;27;42955;-79
2023/07/09 03:41:50;;;;;;;;;;;26.20;54.10;;;;;;5146429;27;43951;-78
2023/07/09 03:44:15;;;;;;;;;;;26.20;54.20;;;;;;5127757;27;43019;-79
2023/07/09 03:46:41;;;;;;;;;;;26.20;54.60;;;;;;5145640;27;42946;-79
2023/07/09 03:49:06;;;;;;;;;;;26.10;54.60;;;;;;5146757;27;43160;-78
2023/07/09 03:51:32;;;;;;;;;;;26.10;54.30;;;;;;5145904;27;42832;-78
2023/07/09 03:53:57;;;;;;;;;;;26.10;54.40;;;;;;5145809;27;43200;-79
2023/07/09 03:56:23;;;;;;;;;;;26.00;54.80;;;;;;5145893;27;42922;-78
2023/07/09 03:58:48;;;;;;;;;;;26.10;55.40;;;;;;5146729;27;43294;-78
2023/07/09 04:01:16;;;;;;;;;;;26.00;54.80;;;;;;5146430;27;42912;-78
2023/07/09 04:03:41;;;;;;;;;;;26.00;54.90;;;;;;5146441;27;43034;-78
2023/07/09 04:06:07;;;;;;;;;;;26.00;54.60;;;;;;5145240;27;42960;-79
2023/07/09 04:08:32;;;;;;;;;;;26.00;54.70;;;;;;5145640;27;42859;-79
2023/07/09 04:11:02;;;;;;;;;;;26.00;54.60;;;;;;5143062;27;43908;-78
2023/07/09 04:13:28;;;;;;;;;;;25.90;54.60;;;;;;5135850;27;43007;-79
2023/07/09 04:15:54;;;;;;;;;;;26.00;54.70;;;;;;5142404;27;43964;-79
2023/07/09 04:18:19;;;;;;;;;;;26.00;54.50;;;;;;5134818;27;43059;-78
2023/07/09 04:20:49;;;;;;;;;;;26.00;55.10;;;;;;5129098;27;43214;-79
2023/07/09 04:23:15;;;;;;;;;;;26.00;54.60;;;;;;5134747;27;42911;-79
2023/07/09 04:25:40;;;;;;;;;;;26.00;55.10;;;;;;5143067;27;43795;-78
2023/07/09 04:28:06;;;;;;;;;;;26.00;54.40;;;;;;5134969;27;43065;-78
2023/07/09 04:30:31;;;;;;;;;;;26.10;54.90;;;;;;5145378;27;43973;-79
2023/07/09 04:32:57;;;;;;;;;;;26.10;54.50;;;;;;5126227;27;43067;-79
2023/07/09 04:35:23;;;;;;;;;;;26.10;54.50;;;;;;5145370;27;43164;-78
2023/07/09 04:37:49;;;;;;;;;;;26.10;54.90;;;;;;5145520;27;42974;-79
2023/07/09 04:40:15;;;;;;;;;;;26.10;54.50;;;;;;5144274;27;43644;-78
2023/07/09 04:42:40;;;;;;;;;;;26.10;55.20;;;;;;5144887;27;42921;-79
2023/07/09 04:45:07;;;;;;;;;;;26.10;54.90;;;;;;5143087;27;42998;-79
2023/07/09 04:47:33;;;;;;;;;;;26.10;55.30;;;;;;5145113;27;42803;-79
2023/07/09 04:49:58;;;;;;;;;;;26.20;54.70;;;;;;5144478;27;43140;-79
2023/07/09 04:52:24;;;;;;;;;;;26.20;55.10;;;;;;5144400;27;42854;-79
2023/07/09 04:54:50;;;;;;;;;;;26.30;55.00;;;;;;5143665;27;43483;-79
2023/07/09 04:57:16;;;;;;;;;;;26.30;54.30;;;;;;5144265;27;42895;-79
2023/07/09 04:59:41;;;;;;;;;;;26.30;54.30;;;;;;5142673;27;43570;-80
2023/07/09 05:02:07;;;;;;;;;;;26.30;54.20;;;;;;5144580;27;42786;-78
2023/07/09 05:04:32;;;;;;;;;;;26.30;54.30;;;;;;5142094;27;44240;-79
2023/07/09 05:06:58;;;;;;;;;;;26.30;54.30;;;;;;5144684;27;42957;-78
2023/07/09 05:09:24;;;;;;;;;;;26.30;54.90;;;;;;5143753;27;43032;-79
2023/07/09 05:11:50;;;;;;;;;;;26.30;54.60;;;;;;5145841;27;42968;-79
2023/07/09 05:14:16;;;;;;;;;;;26.30;54.40;;;;;;5144961;27;43938;-79
2023/07/09 05:16:42;;;;;;;;;;;26.40;54.10;;;;;;5145505;27;42994;-79
2023/07/09 05:19:08;;;;;;;;;;;;;;;;;;5139149;27;44284;-78
2023/07/09 05:21:34;;;;;;;;;;;26.40;54.20;;;;;;5123875;27;42984;-79
2023/07/09 05:23:59;;;;;;;;;;;26.30;54.80;;;;;;5132033;27;43403;-78
2023/07/09 05:26:25;;;;;;;;;;;26.30;54.60;;;;;;5138132;27;42970;-78
2023/07/09 05:28:50;;;;;;;;;;;26.30;54.80;;;;;;5132729;27;43988;-79
2023/07/09 05:31:16;;;;;;;;;;;26.40;54.40;;;;;;5140895;27;42893;-78
2023/07/09 05:33:42;;;;;;;;;;;26.40;54.70;;;;;;5133920;27;43472;-79
2023/07/09 05:36:08;;;;;;;;;;;26.50;53.90;;;;;;5140385;27;42963;-79
2023/07/09 05:38:33;;;;;;;;;;;26.50;54.40;;;;;;5132706;27;43427;-79
2023/07/09 05:41:00;;;;;;;;;;;26.50;54.30;;;;;;5139671;27;42916;-78
2023/07/09 05:43:26;;;;;;;;;;;26.50;54.30;;;;;;5147481;27;43579;-78
2023/07/09 05:45:51;;;;;;;;;;;26.60;54.00;;;;;;5119425;27;42972;-79
2023/07/09 05:48:17;;;;;;;;;;;26.60;53.80;;;;;;5145819;27;43511;-78
2023/07/09 05:50:43;;;;;;;;;;;26.60;53.50;;;;;;5138253;27;42998;-79
2023/07/09 05:53:09;;;;;;;;;;;26.60;53.10;;;;;;5132240;27;42923;-79
2023/07/09 05:55:34;;;;;;;;;;;26.70;53.60;;;;;;5131040;27;42921;-79
2023/07/09 05:58:00;;;;;;;;;;;26.60;53.00;;;;;;5131690;27;42963;-79
2023/07/09 06:00:25;;;;;;;;;;;26.60;53.50;;;;;;5130936;27;42888;-79
2023/07/09 06:02:51;;;;;;;;;;;26.70;53.50;;;;;;5143429;27;42907;-79
2023/07/09 06:05:16;;;;;;;;;;;26.70;53.50;;;;;;5130582;27;42926;-79
2023/07/09 06:07:42;;;;;;;;;;;26.70;53.40;;;;;;5144682;27;42934;-79
2023/07/09 06:10:08;;;;;;;;;;;26.70;53.00;;;;;;5139650;27;43363;-79
2023/07/09 06:12:34;;;;;;;;;;;26.70;53.40;;;;;;5127279;27;43512;-78
2023/07/09 06:14:59;;;;;;;;;;;26.70;52.80;;;;;;5118620;27;43135;-77
2023/07/09 06:17:25;;;;;;;;;;;26.80;53.30;;;;;;5128650;27;45074;-79
2023/07/09 06:19:50;;;;;;;;;;;26.80;52.80;;;;;;5147871;27;42908;-78
2023/07/09 06:22:16;;;;;;;;;;;26.80;53.30;;;;;;5144984;27;42978;-78
2023/07/09 06:24:41;;;;;;;;;;;26.80;53.20;;;;;;5135982;27;42902;-78
2023/07/09 06:27:09;;;;;;;;;;;26.80;53.20;;;;;;5134117;27;44021;-78
2023/07/09 06:29:34;;;;;;;;;;;26.80;52.80;;;;;;5138359;27;42851;-78
2023/07/09 06:32:00;;;;;;;;;;;26.80;52.80;;;;;;5140772;27;43419;-78
2023/07/09 06:34:25;;;;;;;;;;;26.80;52.80;;;;;;5142100;27;43053;-79
2023/07/09 06:36:51;;;;;;;;;;;26.80;52.70;;;;;;5138636;27;43339;-78
2023/07/09 06:39:19;;;;;;;;;;;26.80;52.60;;;;;;5131280;27;43099;-78
2023/07/09 06:41:44;;;;;;;;;;;26.80;52.60;;;;;;5133718;27;43001;-78
2023/07/09 06:44:10;;;;;;;;;;;26.80;52.60;;;;;;5138464;27;43499;-78
2023/07/09 06:46:35;;;;;;;;;;;26.80;53.10;;;;;;5144197;27;43716;-78
2023/07/09 06:49:02;;;;;;;;;;;26.80;52.60;;;;;;5143103;27;42959;-78
2023/07/09 06:51:28;;;;;;;;;;;26.80;52.60;;;;;;5141792;27;42991;-79
2023/07/09 06:53:53;;;;;;;;;;;26.80;52.50;;;;;;5119863;27;42874;-78
2023/07/09 06:56:19;;;;;;;;;;;26.90;53.00;;;;;;5146521;27;42983;-78
2023/07/09 06:58:45;;;;;;;;;;;26.90;52.30;;;;;;5138967;27;43040;-79
2023/07/09 07:01:12;;;;;;;;;;;26.90;52.70;;;;;;5137793;27;44498;-78
2023/07/09 07:03:37;;;;;;;;;;;26.90;52.40;;;;;;5134647;27;42942;-79
2023/07/09 07:06:03;;;;;;;;;;;26.90;52.70;;;;;;5146521;27;42943;-78
2023/07/09 07:08:29;;;;;;;;;;;26.90;52.70;;;;;;5146730;27;42941;-79
2023/07/09 07:11:02;;;;;;;;;;;26.90;52.70;;;;;;5147358;27;43153;-78
2023/07/09 07:13:34;;;;;;;;;;;27.00;52.00;;;;;;5136755;27;42979;-79
2023/07/09 07:16:01;;;;;;;;;;;27.00;52.00;;;;;;5140208;27;42941;-78
2023/07/09 07:18:26;;;;;;;;;;;27.00;52.10;;;;;;5127846;27;43000;-78
2023/07/09 07:20:52;;;;;;;;;;;27.00;52.10;;;;;;5141945;27;43670;-78
2023/07/09 07:23:17;;;;;;;;;;;27.00;52.40;;;;;;5144444;27;42979;-77
2023/07/09 07:25:45;;;;;;;;;;;27.00;53.00;;;;;;5139416;27;43717;-78
2023/07/09 07:28:10;;;;;;;;;;;27.10;52.40;;;;;;5147283;27;43677;-76
2023/07/09 07:30:36;;;;;;;;;;;27.10;52.70;;;;;;5128922;27;43280;-78
2023/07/09 07:33:01;;;;;;;;;;;27.10;52.30;;;;;;5142905;27;43386;-78
2023/07/09 07:35:27;;;;;;;;;;;27.10;52.70;;;;;;5132717;27;43317;-78
2023/07/09 07:37:52;;;;;;;;;;;27.10;52.20;;;;;;5139373;27;43144;-78
2023/07/09 07:40:18;;;;;;;;;;;27.10;52.20;;;;;;5143775;27;43593;-78
2023/07/09 07:42:43;;;;;;;;;;;27.10;52.30;;;;;;5117053;27;42945;-78
2023/07/09 07:45:09;;;;;;;;;;;27.10;52.60;;;;;;5146133;27;43074;-78
2023/07/09 07:47:35;;;;;;;;;;;27.10;52.60;;;;;;5136349;27;42942;-78
2023/07/09 07:50:01;;;;;;;;;;;27.10;52.60;;;;;;5126118;27;42970;-79
2023/07/09 07:52:27;;;;;;;;;;;27.00;52.50;;;;;;5116432;27;42881;-79
2023/07/09 07:54:53;;;;;;;;;;;27.20;52.60;;;;;;5136440;27;43045;-79
2023/07/09 07:57:18;;;;;;;;;;;27.20;52.50;;;;;;5113047;27;43203;-78
2023/07/09 07:59:46;;;;;;;;;;;27.20;52.50;;;;;;5138371;27;43767;-79
2023/07/09 08:02:12;;;;;;;;;;;27.20;52.60;;;;;;5132559;27;42965;-78
2023/07/09 08:04:38;;;;;;;;;;;27.20;53.20;;;;;;5130080;27;43558;-78
2023/07/09 08:07:04;;;;;;;;;;;27.10;53.00;;;;;;5136872;27;43250;-79
2023/07/09 08:09:29;;;;;;;;;;;27.10;53.60;;;;;;5136465;27;43060;-76
2023/07/09 08:11:55;;;;;;;;;;;27.10;53.80;;;;;;5134108;27;43957;-78
2023/07/09 08:14:21;;;;;;;;;;;27.10;54.10;;;;;;5140336;27;43021;-79
2023/07/09 08:16:47;;;;;;;;;;;27.10;54.10;;;;;;5140423;27;43631;-78
2023/07/09 08:19:13;;;;;;;;;;;27.10;54.00;;;;;;5134963;27;42988;-78
2023/07/09 08:21:38;;;;;;;;;;;27.20;53.40;;;;;;5116552;27;43128;-78
2023/07/09 08:24:04;;;;;;;;;;;27.20;53.80;;;;;;5142801;27;43292;-78
2023/07/09 08:26:31;;;;;;;;;;;27.10;53.70;;;;;;5125555;27;43002;-78
2023/07/09 08:28:56;;;;;;;;;;;27.20;54.20;;;;;;5130545;27;43614;-78
2023/07/09 08:31:22;;;;;;;;;;;27.20;53.60;;;;;;5141522;27;42950;-79
2023/07/09 08:33:47;;;;;;;;;;;27.20;53.60;;;;;;5142761;27;43359;-77
2023/07/09 08:36:13;;;;;;;;;;;27.30;53.60;;;;;;5143649;27;42962;-78
2023/07/09 08:38:38;;;;;;;;;;;27.30;53.50;;;;;;5141127;27;43083;-76
2023/07/09 08:41:42;;;;;;;;;;;27.30;54.00;;;;;;5139232;27;43153;-77
2023/07/09 08:44:11;;;;;;;;;;;27.30;53.90;;;;;;5080505;28;43772;-78
2023/07/09 08:46:36;;;;;;;;;;;27.30;54.00;;;;;;5068418;28;43080;-78
2023/07/09 08:49:03;;;;;;;;;;;27.30;53.40;;;;;;5080887;28;43008;-78
2023/07/09 08:51:47;;;;;;;;;;;27.30;54.00;;;;;;5080398;28;43105;-79
2023/07/09 08:54:31;;;;;;;;;;;27.30;54.20;;;;;;5063625;28;45848;-80
2023/07/09 08:57:13;;;;;;;;;;;27.30;54.30;;;;;;5081999;28;43029;-77
2023/07/09 08:59:39;;;;;;;;;;;27.30;54.40;;;;;;5063650;28;43075;-78
2023/07/09 09:02:13;;;;;;;;;;;27.30;54.40;;;;;;5074508;28;42936;-78
2023/07/09 09:04:39;;;;;;;;;;;27.30;54.00;;;;;;5078322;27;43512;-79
2023/07/09 09:07:11;;;;;;;;;;;27.30;53.90;;;;;;5083991;28;42981;-77
2023/07/09 09:09:39;;;;;;;;;;;27.30;54.50;;;;;;5083796;28;43471;-77
2023/07/09 09:12:23;;;;;;;;;;;27.40;54.10;;;;;;5091653;27;43057;-79
2023/07/09 09:14:59;;;;;;;;;;;27.30;54.00;;;;;;5109653;27;42852;-78
2023/07/09 09:17:29;;;;;;;;;;;27.40;54.80;;;;;;5134658;27;43088;-77
2023/07/09 09:19:57;;;;;;;;;;;27.40;54.70;;;;;;5113762;27;43096;-79
2023/07/09 09:22:43;;;;;;;;;;;27.40;55.10;;;;;;5123261;27;43040;-79
2023/07/09 09:25:15;;;;;;;;;;;27.40;55.60;;;;;;5146889;27;42995;-79
2023/07/09 09:27:41;;;;;;;;;;;27.40;55.60;;;;;;5133686;27;43073;-77
2023/07/09 09:30:14;;;;;;;;;;;27.40;55.50;;;;;;5119840;27;43544;-77
2023/07/09 09:32:43;;;;;;;;;;;27.40;55.50;;;;;;5123906;27;43031;-78
2023/07/09 09:35:16;;;;;;;;;;;27.40;55.30;;;;;;5119840;27;44913;-78
2023/07/09 09:37:44;;;;;;;;;;;27.50;55.10;;;;;;5133415;27;43068;-77
2023/07/09 09:40:10;;;;;;;;;;;27.60;55.00;;;;;;5122771;27;44215;-77
2023/07/09 09:42:35;;;;;;;;;;;27.60;54.20;;;;;;5143073;27;43070;-78
2023/07/09 09:45:02;;;;;;;;;;;27.60;54.40;;;;;;5148376;27;43479;-78
2023/07/09 09:47:28;;;;;;;;;;;27.60;53.80;;;;;;5126990;27;42946;-78
2023/07/09 09:49:53;;;;;;;;;;;27.50;54.30;;;;;;5138405;27;43581;-77
2023/07/09 09:52:20;;;;;;;;;;;27.50;53.80;;;;;;5139387;27;42945;-78
2023/07/09 09:54:51;;;;;;;;;;;27.50;53.70;;;;;;5113190;27;45422;-78
2023/07/09 09:57:19;;;;;;;;;;;27.60;53.80;;;;;;5146574;27;42955;-77
2023/07/09 09:59:46;;;;;;;;;;;27.60;53.50;;;;;;5145738;27;43605;-77
2023/07/09 10:02:19;;;;;;;;;;;27.60;53.80;;;;;;5135592;27;42894;-78
2023/07/09 10:04:47;;;;;;;;;;;27.50;53.70;;;;;;5145477;27;43886;-78
2023/07/09 10:07:27;;;;;;;;;;;27.50;53.70;;;;;;5146794;27;43091;-77
2023/07/09 10:09:54;;;;;;;;;;;27.60;53.80;;;;;;5133212;27;43191;-77
2023/07/09 10:12:22;;;;;;;;;;;27.50;53.70;;;;;;5142683;27;42858;-78
2023/07/09 10:14:47;;;;;;;;;;;27.60;53.80;;;;;;5142755;27;42978;-79
2023/07/09 10:17:22;;;;;;;;;;;27.50;53.30;;;;;;5138290;27;43031;-76
2023/07/09 10:19:59;;;;;;;;;;;27.60;53.70;;;;;;5132943;27;43834;-76
2023/07/09 10:22:33;;;;;;;;;;;27.60;53.10;;;;;;5140981;27;42956;-78
2023/07/09 10:25:06;;;;;;;;;;;27.60;53.50;;;;;;5137562;27;43117;-78
2023/07/09 10:27:38;;;;;;;;;;;27.60;53.50;;;;;;5141802;27;42922;-78
2023/07/09 10:30:32;;;;;;;;;;;27.60;53.60;;;;;;5141961;27;42964;-79
2023/07/09 10:33:06;;;;;;;;;;;27.60;53.80;;;;;;5137894;27;43112;-78
2023/07/09 10:35:36;;;;;;;;;;;27.60;53.80;;;;;;5140740;27;42942;-79
2023/07/09 10:38:02;;;;;;;;;;;27.60;53.50;;;;;;5137932;27;43061;-77
2023/07/09 10:40:31;;;;;;;;;;;27.60;53.30;;;;;;5123027;27;45236;-79
2023/07/09 10:42:58;;;;;;;;;;;27.60;53.60;;;;;;5147723;27;42953;-79
2023/07/09 10:45:28;;;;;;;;;;;27.60;53.70;;;;;;5123749;27;44979;-78
2023/07/09 10:48:10;;;;;;;;;;;27.60;53.80;;;;;;5143072;27;42957;-78
2023/07/09 10:50:44;;;;;;;;;;;27.60;54.40;;;;;;5144203;27;44067;-78
2023/07/09 10:53:32;;;;;;;;;;;27.60;54.20;;;;;;5144946;27;42851;-78
2023/07/09 10:56:10;;;;;;;;;;;27.60;54.10;;;;;;5106060;27;43394;-75
2023/07/09 10:58:41;;;;;;;;;;;27.70;54.10;;;;;;5120665;27;43027;-77
2023/07/09 11:01:07;;;;;;;;;;;27.60;53.40;;;;;;5142194;27;43027;-78
2023/07/09 11:03:32;;;;;;;;;;;27.60;53.50;;;;;;5146994;27;43058;-78
2023/07/09 11:05:58;;;;;;;;;;;27.60;54.00;;;;;;5145309;27;43020;-77
2023/07/09 11:08:29;;;;;;;;;;;27.60;54.00;;;;;;5135494;27;43137;-75
2023/07/09 11:10:57;;;;;;;;;;;27.70;54.10;;;;;;5140203;27;43513;-80
2023/07/09 11:13:31;;;;;;;;;;;27.70;53.90;;;;;;5140164;27;42896;-79
2023/07/09 11:15:56;;;;;;;;;;;27.70;54.00;;;;;;5140731;27;43129;-80
2023/07/09 11:18:26;;;;;;;;;;;27.70;54.00;;;;;;5131374;27;43908;-78
2023/07/09 11:21:15;;;;;;;;;;;27.70;54.10;;;;;;5127111;27;43091;-78
2023/07/09 11:23:45;;;;;;;;;;;27.70;54.50;;;;;;5122731;27;42877;-78
2023/07/09 11:26:35;;;;;;;;;;;27.70;54.00;;;;;;5145711;27;43041;-76
2023/07/09 11:29:06;;;;;;;;;;;27.70;54.40;;;;;;5124465;27;43211;-79
2023/07/09 11:31:36;;;;;;;;;;;27.70;54.40;;;;;;5124268;27;42994;-80
2023/07/09 11:34:09;;;;;;;;;;;27.80;54.60;;;;;;5129113;27;43030;-79
2023/07/09 11:36:45;;;;;;;;;;;27.80;54.60;;;;;;5144914;27;43475;-79
2023/07/09 11:39:21;;;;;;;;;;;27.70;54.60;;;;;;5141195;27;43640;-80
2023/07/09 11:41:47;;;;;;;;;;;27.70;54.30;;;;;;5127487;27;43052;-78
2023/07/09 11:44:17;;;;;;;;;;;27.70;55.10;;;;;;5133412;27;43117;-77
2023/07/09 11:47:02;;;;;;;;;;;27.80;55.20;;;;;;5131655;27;43194;-79
2023/07/09 11:49:33;;;;;;;;;;;27.80;55.30;;;;;;5124329;27;43049;-79
2023/07/09 11:52:03;;;;;;;;;;;27.80;55.10;;;;;;5129259;27;42959;-80
2023/07/09 11:54:33;;;;;;;;;;;27.80;55.00;;;;;;5125233;27;42891;-80
2023/07/09 11:57:01;;;;;;;;;;;27.80;54.40;;;;;;5119206;27;43123;-80
2023/07/09 11:59:27;;;;;;;;;;;27.80;54.40;;;;;;5140693;27;42892;-78
2023/07/09 12:01:54;;;;;;;;;;;27.80;54.90;;;;;;5137986;27;43530;-78
2023/07/09 12:04:21;;;;;;;;;;;27.80;55.00;;;;;;5133326;27;43194;-79
2023/07/09 12:06:47;;;;;;;;;;;27.80;55.50;;;;;;5138766;27;42969;-78
2023/07/09 12:09:17;;;;;;;;;;;27.90;54.90;;;;;;5144619;27;43063;-80
2023/07/09 12:11:44;;;;;;;;;;;27.90;55.00;;;;;;5125427;27;43635;-78
2023/07/09 12:14:14;;;;;;;;;;;27.90;54.60;;;;;;5128030;27;43093;-79
2023/07/09 12:16:41;;;;;;;;;;;30.80;56.90;;;;;;5136198;27;43451;-79
2023/07/09 12:19:07;;;;;;;;;;;27.90;55.00;;;;;;5130372;27;43076;-78
2023/07/09 12:21:36;;;;;;;;;;;27.90;55.00;;;;;;5128687;27;43685;-81
2023/07/09 12:24:02;;;;;;;;;;;27.90;55.00;;;;;;5135209;27;43035;-79
2023/07/09 12:26:30;;;;;;;;;;;27.80;54.50;;;;;;5124853;27;43454;-79
2023/07/09 12:28:57;;;;;;;;;;;27.90;54.60;;;;;;5145321;27;42845;-79
2023/07/09 12:31:27;;;;;;;;;;;27.90;54.60;;;;;;5145282;27;42985;-79
2023/07/09 12:33:53;;;;;;;;;;;27.90;54.60;;;;;;5145305;27;43245;-81
2023/07/09 12:36:19;;;;;;;;;;;27.90;55.00;;;;;;5146245;27;43397;-79
2023/07/09 12:38:51;;;;;;;;;;;28.00;54.50;;;;;;5146337;27;43000;-80
2023/07/09 12:41:22;;;;;;;;;;;27.90;54.40;;;;;;5126302;27;43986;-79
2023/07/09 12:43:48;;;;;;;;;;;27.90;54.80;;;;;;5140059;27;43037;-77
2023/07/09 12:46:13;;;;;;;;;;;27.90;54.90;;;;;;5143937;27;42963;-77
2023/07/09 12:48:40;;;;;;;;;;;27.90;55.00;;;;;;5144421;27;43267;-79
2023/07/09 12:51:07;;;;;;;;;;;27.90;54.50;;;;;;5145342;27;43648;-78
2023/07/09 12:53:32;;;;;;;;;;;28.00;54.90;;;;;;5145113;27;43035;-77
2023/07/09 12:55:59;;;;;;;;;;;27.90;54.30;;;;;;5144768;27;43012;-79
2023/07/09 12:58:25;;;;;;;;;;;27.90;54.20;;;;;;5145847;27;42965;-76
2023/07/09 13:00:52;;;;;;;;;;;28.00;54.00;;;;;;5144980;27;42903;-76
2023/07/09 13:03:21;;;;;;;;;;;27.90;54.00;;;;;;5126267;27;42838;-77
2023/07/09 13:05:56;;;;;;;;;;;27.90;54.50;;;;;;5145194;27;44409;-77
2023/07/09 13:08:26;;;;;;;;;;;27.90;54.40;;;;;;5134922;27;42935;-77
2023/07/09 13:10:53;;;;;;;;;;;27.90;54.00;;;;;;5144196;27;43071;-78
2023/07/09 13:13:20;;;;;;;;;;;28.00;54.40;;;;;;5144686;27;43011;-78
2023/07/09 13:15:56;;;;;;;;;;;27.90;54.20;;;;;;5144252;27;43133;-78
2023/07/09 13:18:23;;;;;;;;;;;27.90;53.80;;;;;;5144996;27;43092;-77
2023/07/09 13:20:49;;;;;;;;;;;27.90;54.40;;;;;;5144950;27;42932;-78
2023/07/09 13:23:16;;;;;;;;;;;28.00;54.40;;;;;;5145439;27;43064;-78
2023/07/09 13:25:41;;;;;;;;;;;28.00;53.80;;;;;;5144171;27;43529;-77
2023/07/09 13:28:15;;;;;;;;;;;28.00;53.70;;;;;;5128793;27;42918;-78
2023/07/09 13:30:40;;;;;;;;;;;28.00;54.10;;;;;;5131319;27;42974;-78
2023/07/09 13:33:10;;;;;;;;;;;28.00;53.60;;;;;;5139778;27;42965;-76
2023/07/09 13:35:35;;;;;;;;;;;28.00;54.10;;;;;;5131944;27;43385;-79
2023/07/09 13:38:04;;;;;;;;;;;28.00;53.70;;;;;;5136698;27;43000;-77
2023/07/09 13:40:29;;;;;;;;;;;28.00;53.80;;;;;;5137760;27;43373;-78
2023/07/09 13:42:55;;;;;;;;;;;28.00;53.70;;;;;;5142188;27;42899;-77
2023/07/09 13:45:22;;;;;;;;;;;28.00;53.60;;;;;;5141095;27;43871;-77
2023/07/09 13:47:49;;;;;;;;;;;28.00;54.10;;;;;;5142458;27;43140;-79
2023/07/09 13:50:16;;;;;;;;;;;28.10;54.10;;;;;;5133825;27;43891;-77
2023/07/09 13:52:42;;;;;;;;;;;28.00;54.00;;;;;;5143203;27;43166;-77
2023/07/09 13:55:15;;;;;;;;;;;28.00;53.50;;;;;;5135545;27;43364;-77
2023/07/09 13:57:41;;;;;;;;;;;28.00;53.50;;;;;;5146117;27;43124;-77
2023/07/09 14:00:08;;;;;;;;;;;28.00;53.50;;;;;;5143502;27;43164;-77
2023/07/09 14:02:33;;;;;;;;;;;28.00;53.60;;;;;;5140905;27;42912;-77
2023/07/09 14:05:00;;;;;;;;;;;28.00;54.20;;;;;;5133166;27;43482;-79
2023/07/09 14:07:27;;;;;;;;;;;28.00;54.20;;;;;;5144167;27;42904;-78
2023/07/09 14:09:53;;;;;;;;;;;28.10;53.70;;;;;;5140398;27;43481;-77
2023/07/09 14:12:19;;;;;;;;;;;28.00;54.10;;;;;;5146743;27;42927;-77
2023/07/09 14:14:45;;;;;;;;;;;28.10;54.10;;;;;;5133312;27;43795;-77
2023/07/09 14:17:12;;;;;;;;;;;28.00;53.50;;;;;;5129270;27;42935;-78
2023/07/09 14:19:37;;;;;;;;;;;28.10;53.70;;;;;;5141953;27;43590;-78
2023/07/09 14:22:10;;;;;;;;;;;28.10;53.90;;;;;;5147434;27;43093;-77